createdAt,value
2022-12-19T00:01:53.682Z,101521.00
2022-12-19T00:04:23.062Z,101513.00
2022-12-19T00:06:50.728Z,101502.00
2022-12-19T00:09:18.480Z,101503.00
2022-12-19T00:11:48.506Z,101512.00
2022-12-19T00:14:16.285Z,101506.00
2022-12-19T00:16:44.088Z,101504.00
2022-12-19T00:19:12.761Z,101497.00
2022-12-19T00:21:41.833Z,101494.00
2022-12-19T00:24:20.711Z,101495.00
2022-12-19T00:26:49.938Z,101495.00
2022-12-19T00:29:17.665Z,101494.00
2022-12-19T00:31:45.632Z,101493.00
2022-12-19T00:34:13.404Z,101485.00
2022-12-19T00:36:42.415Z,101475.00
2022-12-19T00:39:11.531Z,101480.00
2022-12-19T00:41:41.790Z,101457.00
2022-12-19T00:44:12.825Z,101462.00
2022-12-19T00:46:41.790Z,101467.00
2022-12-19T00:49:09.611Z,101462.00
2022-12-19T00:51:38.672Z,101452.00
2022-12-19T00:54:08.002Z,101459.00
2022-12-19T00:56:38.207Z,101456.00
2022-12-19T00:59:06.645Z,101456.00
2022-12-19T01:01:36.542Z,101447.00
2022-12-19T01:06:53.988Z,101450.00
2022-12-19T01:09:26.752Z,101464.00
2022-12-19T01:12:11.852Z,101446.00
2022-12-19T01:14:39.514Z,101456.00
2022-12-19T01:17:07.172Z,101452.00
2022-12-19T01:19:38.941Z,101454.00
2022-12-19T01:22:09.808Z,101462.00
2022-12-19T01:24:39.476Z,101460.00
2022-12-19T01:27:07.199Z,101448.00
2022-12-19T01:29:36.701Z,101444.00
2022-12-19T01:32:12.298Z,101448.00
2022-12-19T01:34:39.945Z,101452.00
2022-12-19T01:37:07.590Z,101453.00
2022-12-19T01:39:35.193Z,101445.00
2022-12-19T01:42:11.514Z,101455.00
2022-12-19T01:44:39.205Z,101429.00
2022-12-19T01:47:14.469Z,101430.00
2022-12-19T01:49:42.127Z,101426.00
2022-12-19T01:52:13.497Z,101423.00
2022-12-19T01:54:51.420Z,101428.00
2022-12-19T01:57:21.170Z,101422.00
2022-12-19T01:59:53.296Z,101429.00
2022-12-19T02:02:27.637Z,101427.00
2022-12-19T02:04:55.353Z,101427.00
2022-12-19T02:07:26.226Z,101419.00
2022-12-19T02:09:57.379Z,101412.00
2022-12-19T02:12:34.535Z,101419.00
2022-12-19T02:15:03.696Z,101404.00
2022-12-19T02:17:39.745Z,101401.00
2022-12-19T02:20:52.287Z,101387.00
2022-12-19T02:23:55.437Z,101386.00
2022-12-19T02:26:50.459Z,101388.00
2022-12-19T02:29:42.366Z,101387.00
2022-12-19T02:32:19.375Z,101367.00
2022-12-19T02:34:53.824Z,101364.00
2022-12-19T02:37:25.254Z,101372.00
2022-12-19T02:39:57.348Z,101373.00
2022-12-19T02:42:31.892Z,101371.00
2022-12-19T02:45:01.840Z,101357.00
2022-12-19T02:47:33.011Z,101367.00
2022-12-19T02:50:00.779Z,101362.00
2022-12-19T02:52:48.871Z,101372.00
2022-12-19T02:55:21.253Z,101357.00
2022-12-19T02:58:05.004Z,101366.00
2022-12-19T03:00:37.566Z,101334.00
2022-12-19T03:03:12.056Z,101358.00
2022-12-19T03:05:46.405Z,101350.00
2022-12-19T03:08:23.003Z,101338.00
2022-12-19T03:10:58.207Z,101343.00
2022-12-19T03:13:30.172Z,101337.00
2022-12-19T03:15:59.253Z,101332.00
2022-12-19T03:18:28.703Z,101326.00
2022-12-19T03:21:05.902Z,101338.00
2022-12-19T03:23:33.896Z,101327.00
2022-12-19T03:26:06.541Z,101337.00
2022-12-19T03:28:39.744Z,101342.00
2022-12-19T03:31:09.769Z,101340.00
2022-12-19T03:33:40.925Z,101342.00
2022-12-19T03:36:12.977Z,101331.00
2022-12-19T03:38:44.544Z,101322.00
2022-12-19T03:41:15.277Z,101320.00
2022-12-19T03:43:44.669Z,101321.00
2022-12-19T03:46:17.415Z,101321.00
2022-12-19T03:48:48.352Z,101329.00
2022-12-19T03:51:23.109Z,101318.00
2022-12-19T03:53:59.049Z,101322.00
2022-12-19T03:56:35.717Z,101323.00
2022-12-19T03:59:09.808Z,101326.00
2022-12-19T04:01:38.911Z,101306.00
2022-12-19T04:04:09.848Z,101300.00
2022-12-19T04:06:39.583Z,101307.00
2022-12-19T04:09:08.639Z,101300.00
2022-12-19T04:11:40.992Z,101299.00
2022-12-19T04:14:12.645Z,101284.00
2022-12-19T04:16:46.482Z,101283.00
2022-12-19T04:19:20.521Z,101279.00
2022-12-19T04:21:53.482Z,101281.00
2022-12-19T04:24:26.553Z,101280.00
2022-12-19T04:26:58.377Z,101276.00
2022-12-19T04:29:28.418Z,101266.00
2022-12-19T04:31:57.152Z,101276.00
2022-12-19T04:34:26.208Z,101263.00
2022-12-19T04:36:53.871Z,101264.00
2022-12-19T04:39:21.621Z,101254.00
2022-12-19T04:41:49.846Z,101246.00
2022-12-19T04:44:17.759Z,101244.00
2022-12-19T04:46:45.495Z,101255.00
2022-12-19T04:49:13.217Z,101246.00
2022-12-19T04:51:42.311Z,101231.00
2022-12-19T04:54:09.939Z,101238.00
2022-12-19T04:56:37.562Z,101225.00
2022-12-19T04:59:05.203Z,101214.00
2022-12-19T05:01:33.023Z,101227.00
2022-12-19T05:04:04.467Z,101219.00
2022-12-19T05:06:33.164Z,101208.00
2022-12-19T05:09:02.165Z,101194.00
2022-12-19T05:11:29.884Z,101198.00
2022-12-19T05:13:59.604Z,101211.00
2022-12-19T05:16:27.370Z,101198.00
2022-12-19T05:18:55.404Z,101192.00
2022-12-19T05:21:23.667Z,101192.00
2022-12-19T05:23:51.459Z,101190.00
2022-12-19T05:26:20.651Z,101180.00
2022-12-19T05:28:48.803Z,101176.00
2022-12-19T05:31:18.210Z,101171.00
2022-12-19T05:33:45.851Z,101167.00
2022-12-19T05:36:15.021Z,101170.00
2022-12-19T05:38:43.000Z,101170.00
2022-12-19T05:41:12.324Z,101162.00
2022-12-19T05:43:41.358Z,101164.00
2022-12-19T05:46:09.302Z,101167.00
2022-12-19T05:48:37.436Z,101172.00
2022-12-19T05:51:05.884Z,101164.00
2022-12-19T05:53:33.867Z,101160.00
2022-12-19T05:56:06.068Z,101159.00
2022-12-19T05:58:36.389Z,101159.00
2022-12-19T06:01:07.143Z,101159.00
2022-12-19T06:03:35.149Z,101156.00
2022-12-19T06:06:03.828Z,101152.00
2022-12-19T06:08:31.842Z,101148.00
2022-12-19T06:11:01.041Z,101135.00
2022-12-19T06:13:28.981Z,101135.00
2022-12-19T06:15:59.997Z,101127.00
2022-12-19T06:18:30.144Z,101122.00
2022-12-19T06:20:59.147Z,101118.00
2022-12-19T06:23:26.858Z,101119.00
2022-12-19T06:25:57.427Z,101124.00
2022-12-19T06:28:25.552Z,101132.00
2022-12-19T06:30:53.380Z,101127.00
2022-12-19T06:33:21.082Z,101119.00
2022-12-19T06:35:50.062Z,101106.00
2022-12-19T06:38:17.748Z,101116.00
2022-12-19T06:41:03.660Z,101105.00
2022-12-19T06:43:31.385Z,101112.00
2022-12-19T06:45:59.178Z,101109.00
2022-12-19T06:48:28.860Z,101115.00
2022-12-19T06:50:57.865Z,101113.00
2022-12-19T06:53:25.746Z,101111.00
2022-12-19T06:55:56.185Z,101124.00
2022-12-19T06:58:24.611Z,101123.00
2022-12-19T07:00:53.148Z,101129.00
2022-12-19T07:03:25.129Z,101129.00
2022-12-19T07:05:54.168Z,101121.00
2022-12-19T07:08:23.340Z,101117.00
2022-12-19T07:10:51.028Z,101116.00
2022-12-19T07:13:18.705Z,101112.00
2022-12-19T07:15:46.369Z,101125.00
2022-12-19T07:18:14.285Z,101125.00
2022-12-19T07:20:45.223Z,101111.00
2022-12-19T07:23:18.379Z,101109.00
2022-12-19T07:25:47.722Z,101102.00
2022-12-19T07:28:16.063Z,101111.00
2022-12-19T07:30:43.983Z,101121.00
2022-12-19T07:33:13.610Z,101102.00
2022-12-19T07:35:44.720Z,101121.00
2022-12-19T07:38:12.403Z,101112.00
2022-12-19T07:40:40.077Z,101102.00
2022-12-19T07:43:09.367Z,101104.00
2022-12-19T07:45:39.233Z,101109.00
2022-12-19T07:48:08.380Z,101104.00
2022-12-19T07:50:36.159Z,101108.00
2022-12-19T07:53:04.000Z,101102.00
2022-12-19T07:55:31.821Z,101108.00
2022-12-19T07:58:00.340Z,101103.00
2022-12-19T08:00:30.562Z,101094.00
2022-12-19T08:02:59.565Z,101102.00
2022-12-19T08:05:27.407Z,101104.00
2022-12-19T08:07:55.241Z,101099.00
2022-12-19T08:10:23.454Z,101107.00
2022-12-19T08:12:51.565Z,101093.00
2022-12-19T08:15:19.336Z,101110.00
2022-12-19T08:17:48.642Z,101103.00
2022-12-19T08:20:16.415Z,101108.00
2022-12-19T08:22:45.076Z,101112.00
2022-12-19T08:25:13.263Z,101105.00
2022-12-19T08:27:42.659Z,101085.00
2022-12-19T08:30:14.164Z,101095.00
2022-12-19T08:32:41.882Z,101099.00
2022-12-19T08:35:11.078Z,101099.00
2022-12-19T08:37:39.753Z,101103.00
2022-12-19T08:40:09.164Z,101105.00
2022-12-19T08:42:36.868Z,101091.00
2022-12-19T08:45:05.196Z,101074.00
2022-12-19T08:47:33.003Z,101088.00
2022-12-19T08:50:01.195Z,101091.00
2022-12-19T08:52:30.220Z,101081.00
2022-12-19T08:54:57.946Z,101076.00
2022-12-19T08:57:26.110Z,101061.00
2022-12-19T08:59:54.032Z,101068.00
2022-12-19T09:02:24.271Z,101079.00
2022-12-19T09:05:57.865Z,101071.00
2022-12-19T09:07:41.272Z,101071.00
2022-12-19T09:10:10.146Z,101069.00
2022-12-19T09:12:37.785Z,101063.00
2022-12-19T09:15:06.197Z,101064.00
2022-12-19T09:17:34.145Z,101059.00
2022-12-19T09:20:02.301Z,101057.00
2022-12-19T09:22:29.989Z,101055.00
2022-12-19T09:24:59.016Z,101060.00
2022-12-19T09:27:27.064Z,101050.00
2022-12-19T09:29:54.743Z,101058.00
2022-12-19T09:32:22.451Z,101043.00
2022-12-19T09:34:50.179Z,101059.00
2022-12-19T09:37:18.086Z,101052.00
2022-12-19T09:39:46.733Z,101051.00
2022-12-19T09:42:44.736Z,101048.00
2022-12-19T09:45:46.202Z,101045.00
2022-12-19T09:48:23.558Z,101049.00
2022-12-19T09:51:09.393Z,101033.00
2022-12-19T09:53:44.165Z,101049.00
2022-12-19T09:56:16.645Z,101046.00
2022-12-19T09:58:50.163Z,101043.00
2022-12-19T10:01:23.210Z,101041.00
2022-12-19T10:04:00.176Z,101044.00
2022-12-19T10:07:10.525Z,101028.00
2022-12-19T10:11:25.102Z,101032.00
2022-12-19T10:12:47.916Z,101032.00
2022-12-19T10:15:18.719Z,101035.00
2022-12-19T10:18:11.860Z,101013.00
2022-12-19T10:20:44.457Z,101024.00
2022-12-19T10:23:31.673Z,101026.00
2022-12-19T10:26:04.635Z,101027.00
2022-12-19T10:28:59.035Z,101015.00
2022-12-19T10:31:35.590Z,101028.00
2022-12-19T10:34:13.558Z,101022.00
2022-12-19T10:39:43.318Z,100987.00
2022-12-19T10:42:18.187Z,101012.00
2022-12-19T10:44:48.262Z,101005.00
2022-12-19T10:47:18.588Z,100999.00
2022-12-19T10:49:46.385Z,101003.00
2022-12-19T10:52:14.292Z,100974.00
2022-12-19T10:54:43.965Z,100988.00
2022-12-19T10:57:26.201Z,100989.00
2022-12-19T10:59:59.697Z,100980.00
2022-12-19T11:02:41.408Z,100964.00
2022-12-19T11:05:24.349Z,100961.00
2022-12-19T11:08:02.985Z,100954.00
2022-12-19T11:11:33.324Z,100955.00
2022-12-19T11:19:16.584Z,100961.00
2022-12-19T11:22:26.443Z,100954.00
2022-12-19T11:29:27.699Z,100937.00
2022-12-19T11:29:38.719Z,100942.00
2022-12-19T11:29:42.227Z,100930.00
2022-12-19T11:30:45.317Z,100938.00
2022-12-19T11:32:14.095Z,100936.00
2022-12-19T11:33:47.244Z,100931.00
2022-12-19T11:36:32.052Z,100938.00
2022-12-19T11:39:00.856Z,100927.00
2022-12-19T11:41:34.858Z,100924.00
2022-12-19T11:44:09.441Z,100934.00
2022-12-19T11:46:43.675Z,100934.00
2022-12-19T11:49:23.241Z,100930.00
2022-12-19T11:51:57.463Z,100942.00
2022-12-19T11:54:28.831Z,100935.00
2022-12-19T11:56:58.157Z,100930.00
2022-12-19T11:59:31.676Z,100919.00
2022-12-19T12:02:07.747Z,100909.00
2022-12-19T12:05:01.411Z,100930.00
2022-12-19T12:09:14.477Z,100909.00
2022-12-19T12:14:05.896Z,100919.00
2022-12-19T12:22:04.275Z,100916.00
2022-12-19T12:30:59.036Z,100913.00
2022-12-19T12:31:07.544Z,100905.00
2022-12-19T12:31:09.073Z,100914.00
2022-12-19T12:31:45.491Z,100930.00
2022-12-19T12:31:55.325Z,100919.00
2022-12-19T12:35:42.377Z,100925.00
2022-12-19T12:40:55.046Z,100916.00
2022-12-19T12:43:36.218Z,100912.00
2022-12-19T12:46:06.208Z,100913.00
2022-12-19T12:48:38.482Z,100896.00
2022-12-19T12:51:08.157Z,100909.00
2022-12-19T12:53:39.181Z,100896.00
2022-12-19T12:56:11.565Z,100894.00
2022-12-19T12:59:05.279Z,100892.00
2022-12-19T13:01:38.825Z,100897.00
2022-12-19T13:04:19.238Z,100904.00
2022-12-19T13:07:05.404Z,100914.00
2022-12-19T13:09:36.538Z,100921.00
2022-12-19T13:12:39.553Z,100914.00
2022-12-19T13:15:36.936Z,100918.00
2022-12-19T13:18:35.512Z,100908.00
2022-12-19T13:21:06.220Z,100909.00
2022-12-19T13:23:46.518Z,100914.00
2022-12-19T13:26:45.873Z,100913.00
2022-12-19T13:29:51.243Z,100909.00
2022-12-19T13:32:18.917Z,100904.00
2022-12-19T13:35:04.805Z,100907.00
2022-12-19T13:39:56.782Z,100916.00
2022-12-19T13:40:53.042Z,100923.00
2022-12-19T13:43:48.100Z,100915.00
2022-12-19T13:46:33.511Z,100912.00
2022-12-19T13:49:04.701Z,100926.00
2022-12-19T13:51:43.911Z,100928.00
2022-12-19T13:54:24.197Z,100931.00
2022-12-19T13:56:54.060Z,100937.00
2022-12-19T13:59:23.268Z,100939.00
2022-12-19T14:01:54.273Z,100938.00
2022-12-19T14:04:31.018Z,100937.00
2022-12-19T14:07:02.295Z,100929.00
2022-12-19T14:11:29.063Z,100918.00
2022-12-19T14:13:54.424Z,100922.00
2022-12-19T14:15:33.961Z,100914.00
2022-12-19T14:18:44.776Z,100912.00
2022-12-19T14:22:04.607Z,100913.00
2022-12-19T14:24:14.938Z,100925.00
2022-12-19T14:28:25.803Z,100925.00
2022-12-19T14:29:45.466Z,100915.00
2022-12-19T14:33:39.330Z,100913.00
2022-12-19T14:36:10.400Z,100900.00
2022-12-19T14:39:23.842Z,100904.00
2022-12-19T14:41:08.235Z,100895.00
2022-12-19T14:43:59.409Z,100919.00
2022-12-19T14:54:02.603Z,100915.00
2022-12-19T14:54:15.726Z,100911.00
2022-12-19T14:54:32.221Z,100921.00
2022-12-19T14:56:13.690Z,100913.00
2022-12-19T14:58:52.687Z,100910.00
2022-12-19T15:01:23.804Z,100908.00
2022-12-19T15:04:49.272Z,100905.00
2022-12-19T15:07:08.584Z,100893.00
2022-12-19T15:11:08.239Z,100891.00
2022-12-19T15:14:38.037Z,100896.00
2022-12-19T15:15:41.245Z,100887.00
2022-12-19T15:18:24.804Z,100887.00
2022-12-19T15:20:53.774Z,100880.00
2022-12-19T15:23:22.681Z,100888.00
2022-12-19T15:26:09.036Z,100882.00
2022-12-19T15:28:41.981Z,100887.00
2022-12-19T15:31:18.203Z,100883.00
2022-12-19T15:34:14.471Z,100881.00
2022-12-19T15:36:33.621Z,100883.00
2022-12-19T15:39:01.299Z,100884.00
2022-12-19T15:41:30.650Z,100873.00
2022-12-19T15:44:06.238Z,100862.00
2022-12-19T15:46:34.599Z,100878.00
2022-12-19T15:49:02.480Z,100870.00
2022-12-19T15:51:30.221Z,100865.00
2022-12-19T15:54:15.523Z,100871.00
2022-12-19T15:56:50.395Z,100873.00
2022-12-19T15:59:28.626Z,100875.00
2022-12-19T16:02:00.772Z,100865.00
2022-12-19T16:04:29.462Z,100867.00
2022-12-19T16:06:57.224Z,100866.00
2022-12-19T16:09:27.106Z,100856.00
2022-12-19T16:11:58.036Z,100850.00
2022-12-19T16:14:27.001Z,100839.00
2022-12-19T16:16:56.111Z,100849.00
2022-12-19T16:19:26.418Z,100854.00
2022-12-19T16:21:54.826Z,100849.00
2022-12-19T16:24:23.084Z,100854.00
2022-12-19T16:26:54.840Z,100845.00
2022-12-19T16:29:26.388Z,100848.00
2022-12-19T16:31:54.860Z,100848.00
2022-12-19T16:34:24.168Z,100852.00
2022-12-19T16:36:52.165Z,100846.00
2022-12-19T16:39:19.931Z,100858.00
2022-12-19T16:41:48.070Z,100850.00
2022-12-19T16:44:19.633Z,100837.00
2022-12-19T16:46:51.262Z,100836.00
2022-12-19T16:49:22.681Z,100843.00
2022-12-19T16:51:51.142Z,100839.00
2022-12-19T16:54:20.121Z,100843.00
2022-12-19T16:56:50.156Z,100858.00
2022-12-19T16:59:21.762Z,100867.00
2022-12-19T17:01:51.063Z,100853.00
2022-12-19T17:04:21.454Z,100867.00
2022-12-19T17:06:49.766Z,100852.00
2022-12-19T17:09:19.587Z,100835.00
2022-12-19T17:11:50.196Z,100851.00
2022-12-19T17:14:21.865Z,100837.00
2022-12-19T17:16:53.861Z,100829.00
2022-12-19T17:19:24.678Z,100847.00
2022-12-19T17:21:52.868Z,100845.00
2022-12-19T17:24:20.632Z,100838.00
2022-12-19T17:26:48.914Z,100835.00
2022-12-19T17:29:16.617Z,100825.00
2022-12-19T17:31:44.482Z,100818.00
2022-12-19T17:34:18.839Z,100812.00
2022-12-19T17:36:46.632Z,100821.00
2022-12-19T17:39:20.646Z,100808.00
2022-12-19T17:41:48.621Z,100802.00
2022-12-19T17:44:16.441Z,100799.00
2022-12-19T17:46:44.763Z,100817.00
2022-12-19T17:49:17.941Z,100816.00
2022-12-19T17:51:49.815Z,100815.00
2022-12-19T17:54:17.588Z,100832.00
2022-12-19T17:56:45.286Z,100836.00
2022-12-19T17:59:13.348Z,100834.00
2022-12-19T18:01:42.265Z,100827.00
2022-12-19T18:04:15.007Z,100827.00
2022-12-19T18:06:44.068Z,100824.00
2022-12-19T18:09:19.618Z,100825.00
2022-12-19T18:11:47.649Z,100844.00
2022-12-19T18:14:15.836Z,100839.00
2022-12-19T18:16:45.004Z,100834.00
2022-12-19T18:19:18.260Z,100836.00
2022-12-19T18:21:47.638Z,100854.00
2022-12-19T18:24:16.390Z,100844.00
2022-12-19T18:26:44.224Z,100853.00
2022-12-19T18:29:12.006Z,100863.00
2022-12-19T18:31:46.527Z,100875.00
2022-12-19T18:34:20.760Z,100876.00
2022-12-19T18:36:51.713Z,100866.00
2022-12-19T18:39:22.020Z,100864.00
2022-12-19T18:41:50.124Z,100866.00
2022-12-19T18:44:18.619Z,100872.00
2022-12-19T18:46:46.746Z,100873.00
2022-12-19T18:49:16.728Z,100864.00
2022-12-19T18:51:45.555Z,100866.00
2022-12-19T18:54:17.090Z,100864.00
2022-12-19T18:56:46.072Z,100866.00
2022-12-19T18:59:14.078Z,100855.00
2022-12-19T19:01:44.543Z,100829.00
2022-12-19T19:04:13.352Z,100807.00
2022-12-19T19:06:48.527Z,100826.00
2022-12-19T19:09:21.808Z,100828.00
2022-12-19T19:11:49.629Z,100847.00
2022-12-19T19:14:17.368Z,100850.00
2022-12-19T19:16:45.394Z,100855.00
2022-12-19T19:19:17.788Z,100852.00
2022-12-19T19:21:45.673Z,100861.00
2022-12-19T19:24:15.766Z,100854.00
2022-12-19T19:26:44.877Z,100874.00
2022-12-19T19:29:13.460Z,100865.00
2022-12-19T19:31:45.037Z,100871.00
2022-12-19T19:34:16.456Z,100886.00
2022-12-19T19:36:49.612Z,100890.00
2022-12-19T19:39:19.726Z,100900.00
2022-12-19T19:41:48.826Z,100893.00
2022-12-19T19:44:16.601Z,100896.00
2022-12-19T19:46:44.724Z,100885.00
2022-12-19T19:49:12.566Z,100882.00
2022-12-19T19:51:40.283Z,100875.00
2022-12-19T19:54:08.159Z,100883.00
2022-12-19T19:56:35.924Z,100874.00
2022-12-19T19:59:05.083Z,100875.00
2022-12-19T20:01:33.181Z,100881.00
2022-12-19T20:04:01.028Z,100872.00
2022-12-19T20:06:28.832Z,100857.00
2022-12-19T20:08:56.531Z,100860.00
2022-12-19T20:11:24.314Z,100861.00
2022-12-19T20:13:51.996Z,100858.00
2022-12-19T20:16:21.362Z,100861.00
2022-12-19T20:18:51.127Z,100859.00
2022-12-19T20:21:19.664Z,100863.00
2022-12-19T20:23:47.537Z,100856.00
2022-12-19T20:26:16.762Z,100862.00
2022-12-19T20:28:48.840Z,100869.00
2022-12-19T20:31:18.311Z,100874.00
2022-12-19T20:33:48.357Z,100862.00
2022-12-19T20:36:17.105Z,100850.00
2022-12-19T20:38:44.803Z,100830.00
2022-12-19T20:41:12.507Z,100844.00
2022-12-19T20:43:40.191Z,100865.00
2022-12-19T20:46:09.407Z,100846.00
2022-12-19T20:48:38.148Z,100829.00
2022-12-19T20:51:07.858Z,100836.00
2022-12-19T20:53:36.857Z,100831.00
2022-12-19T20:56:06.463Z,100836.00
2022-12-19T20:58:36.621Z,100844.00
2022-12-19T21:01:06.782Z,100838.00
2022-12-19T21:03:34.949Z,100837.00
2022-12-19T21:06:03.435Z,100833.00
2022-12-19T21:08:32.813Z,100851.00
2022-12-19T21:11:01.091Z,100844.00
2022-12-19T21:13:29.200Z,100837.00
2022-12-19T21:15:58.510Z,100847.00
2022-12-19T21:18:26.953Z,100846.00
2022-12-19T21:20:55.647Z,100859.00
2022-12-19T21:23:23.829Z,100870.00
2022-12-19T21:25:53.600Z,100849.00
2022-12-19T21:28:21.297Z,100862.00
2022-12-19T21:30:56.748Z,100857.00
2022-12-19T21:33:24.673Z,100851.00
2022-12-19T21:35:52.452Z,100844.00
2022-12-19T21:38:20.151Z,100847.00
2022-12-19T21:40:47.928Z,100847.00
2022-12-19T21:43:17.266Z,100851.00
2022-12-19T21:45:44.995Z,100837.00
2022-12-19T21:48:12.719Z,100850.00
2022-12-19T21:50:40.362Z,100848.00
2022-12-19T21:53:08.022Z,100852.00
2022-12-19T21:55:35.793Z,100853.00
2022-12-19T21:58:03.450Z,100869.00
2022-12-19T22:00:32.423Z,100853.00
2022-12-19T22:03:13.983Z,100844.00
2022-12-19T22:05:42.712Z,100845.00
2022-12-19T22:08:10.840Z,100868.00
2022-12-19T22:10:39.508Z,100852.00
2022-12-19T22:13:07.164Z,100852.00
2022-12-19T22:15:37.585Z,100845.00
2022-12-19T22:18:05.336Z,100849.00
2022-12-19T22:20:33.012Z,100844.00
2022-12-19T22:23:00.653Z,100823.00
2022-12-19T22:25:28.387Z,100827.00
2022-12-19T22:27:56.469Z,100824.00
2022-12-19T22:30:24.128Z,100825.00
2022-12-19T22:32:53.286Z,100811.00
2022-12-19T22:35:20.965Z,100808.00
2022-12-19T22:37:48.666Z,100808.00
2022-12-19T22:40:16.748Z,100820.00
2022-12-19T22:42:44.406Z,100810.00
2022-12-19T22:45:12.566Z,100813.00
2022-12-19T22:47:41.929Z,100812.00
2022-12-19T22:50:11.498Z,100813.00
2022-12-19T22:52:39.533Z,100815.00
2022-12-19T22:55:08.259Z,100808.00
2022-12-19T22:57:35.904Z,100797.00
2022-12-19T23:00:06.248Z,100809.00
2022-12-19T23:02:34.268Z,100798.00
2022-12-19T23:05:02.091Z,100811.00
2022-12-19T23:07:31.224Z,100814.00
2022-12-19T23:09:58.877Z,100791.00
2022-12-19T23:12:26.671Z,100807.00
2022-12-19T23:14:54.396Z,100811.00
2022-12-19T23:17:22.185Z,100813.00
2022-12-19T23:19:49.828Z,100811.00
2022-12-19T23:22:17.537Z,100828.00
2022-12-19T23:24:48.075Z,100813.00
2022-12-19T23:27:16.257Z,100810.00
2022-12-19T23:29:44.049Z,100817.00
2022-12-19T23:32:12.016Z,100814.00
2022-12-19T23:34:39.728Z,100820.00
2022-12-19T23:37:11.837Z,100814.00
2022-12-19T23:39:40.231Z,100812.00
2022-12-19T23:42:09.518Z,100807.00
2022-12-19T23:44:37.468Z,100798.00
2022-12-19T23:47:05.200Z,100805.00
2022-12-19T23:49:34.030Z,100788.00
2022-12-19T23:52:01.922Z,100783.00
2022-12-19T23:54:29.604Z,100778.00
2022-12-19T23:56:57.293Z,100770.00
2022-12-19T23:59:26.299Z,100774.00
